createdAt,value
2018-12-27T00:01:20.725Z,3.00
2018-12-27T00:04:17.350Z,3.00
2018-12-27T00:07:25.834Z,2.90
2018-12-27T00:10:34.190Z,3.00
2018-12-27T00:13:23.878Z,2.90
2018-12-27T00:16:32.385Z,2.90
2018-12-27T00:19:23.634Z,2.90
2018-12-27T00:22:05.494Z,2.90
2018-12-27T00:24:54.778Z,3.00
2018-12-27T00:28:03.015Z,3.00
2018-12-27T00:33:47.912Z,3.00
2018-12-27T00:36:37.606Z,3.10
2018-12-27T00:39:27.013Z,3.00
2018-12-27T00:42:16.394Z,3.00
2018-12-27T00:48:00.354Z,3.00
2018-12-27T00:50:50.082Z,3.00
2018-12-27T00:53:39.588Z,3.00
2018-12-27T00:56:28.980Z,3.00
2018-12-27T00:59:18.384Z,3.00
2018-12-27T01:02:07.773Z,3.00
2018-12-27T01:04:57.177Z,3.00
2018-12-27T01:07:46.561Z,3.00
2018-12-27T01:10:35.962Z,3.00
2018-12-27T01:13:25.344Z,3.10
2018-12-27T01:19:09.938Z,3.00
2018-12-27T01:21:52.025Z,3.00
2018-12-27T01:24:41.748Z,3.00
2018-12-27T01:27:31.487Z,3.00
2018-12-27T01:30:20.882Z,3.00
2018-12-27T01:33:10.275Z,3.10
2018-12-27T01:35:59.684Z,3.10
2018-12-27T01:38:49.615Z,3.10
2018-12-27T01:41:39.003Z,3.10
2018-12-27T01:47:23.934Z,3.10
2018-12-27T01:50:13.342Z,3.10
2018-12-27T01:53:03.084Z,3.10
2018-12-27T01:55:52.489Z,3.10
2018-12-27T01:58:41.880Z,3.10
2018-12-27T02:01:31.568Z,3.10
2018-12-27T02:04:21.360Z,3.10
2018-12-27T02:07:10.748Z,3.10
2018-12-27T02:10:00.404Z,3.10
2018-12-27T02:12:49.791Z,3.10
2018-12-27T02:15:39.202Z,3.10
2018-12-27T02:18:28.950Z,3.20
2018-12-27T02:21:11.348Z,3.20
2018-12-27T02:24:01.137Z,3.20
2018-12-27T02:26:50.558Z,3.20
2018-12-27T02:29:39.960Z,3.20
2018-12-27T02:32:29.624Z,3.20
2018-12-27T02:35:19.031Z,3.20
2018-12-27T02:38:08.420Z,3.20
2018-12-27T02:40:58.182Z,3.20
2018-12-27T02:43:47.561Z,3.20
2018-12-27T02:46:37.331Z,3.20
2018-12-27T02:49:26.743Z,3.20
2018-12-27T02:52:16.141Z,3.20
2018-12-27T02:55:05.549Z,3.20
2018-12-27T02:57:54.955Z,3.20
2018-12-27T03:00:44.695Z,3.20
2018-12-27T03:03:34.080Z,3.20
2018-12-27T03:06:23.518Z,3.20
2018-12-27T03:09:12.900Z,3.20
2018-12-27T03:12:02.289Z,3.20
2018-12-27T03:14:51.686Z,3.20
2018-12-27T03:17:41.076Z,3.20
2018-12-27T03:20:31.170Z,3.20
2018-12-27T03:23:12.749Z,3.20
2018-12-27T03:26:02.162Z,3.20
2018-12-27T03:28:51.566Z,3.20
2018-12-27T03:31:41.394Z,3.20
2018-12-27T03:34:30.759Z,3.30
2018-12-27T03:40:15.095Z,3.30
2018-12-27T03:43:04.546Z,3.30
2018-12-27T03:45:53.932Z,3.30
2018-12-27T03:48:43.309Z,3.30
2018-12-27T03:51:32.713Z,3.30
2018-12-27T03:54:22.100Z,3.30
2018-12-27T03:57:11.493Z,3.30
2018-12-27T04:00:00.890Z,3.40
2018-12-27T04:02:50.264Z,3.40
2018-12-27T04:05:39.997Z,3.40
2018-12-27T04:08:29.642Z,3.40
2018-12-27T04:11:19.059Z,3.50
2018-12-27T04:14:08.450Z,3.50
2018-12-27T04:16:57.844Z,3.50
2018-12-27T04:19:47.074Z,3.50
2018-12-27T04:22:29.056Z,3.50
2018-12-27T04:28:34.420Z,3.50
2018-12-27T04:37:54.744Z,3.50
2018-12-27T04:40:44.007Z,3.50
2018-12-27T04:47:02.401Z,3.60
2018-12-27T04:49:51.625Z,3.60
2018-12-27T04:52:41.233Z,3.60
2018-12-27T04:55:30.502Z,3.60
2018-12-27T04:58:19.795Z,3.60
2018-12-27T05:01:09.410Z,3.60
2018-12-27T05:03:58.641Z,3.60
2018-12-27T05:06:47.972Z,3.60
2018-12-27T05:09:37.272Z,3.70
2018-12-27T05:15:21.653Z,3.70
2018-12-27T05:18:29.895Z,3.70
2018-12-27T05:21:12.175Z,3.70
2018-12-27T05:24:20.435Z,3.70
2018-12-27T05:27:09.710Z,3.70
2018-12-27T05:29:59.008Z,3.70
2018-12-27T05:32:48.330Z,3.70
2018-12-27T05:35:37.574Z,3.70
2018-12-27T05:38:46.084Z,3.70
2018-12-27T05:41:35.331Z,3.80
2018-12-27T05:44:24.555Z,3.70
2018-12-27T05:47:32.894Z,3.70
2018-12-27T05:50:22.113Z,3.70
2018-12-27T05:53:11.358Z,3.70
2018-12-27T05:56:19.619Z,3.70
2018-12-27T05:59:08.851Z,3.80
2018-12-27T06:02:17.108Z,3.70
2018-12-27T06:05:25.347Z,3.80
2018-12-27T06:08:14.672Z,3.80
2018-12-27T06:11:04.005Z,3.80
2018-12-27T06:13:53.231Z,3.80
2018-12-27T06:16:42.462Z,3.80
2018-12-27T06:19:31.708Z,3.80
2018-12-27T06:22:13.909Z,3.90
2018-12-27T06:25:03.188Z,3.90
2018-12-27T06:30:47.120Z,3.90
2018-12-27T06:33:36.433Z,3.80
2018-12-27T06:36:44.696Z,3.80
2018-12-27T06:39:33.993Z,3.80
2018-12-27T06:42:23.231Z,3.80
2018-12-27T06:45:31.482Z,3.80
2018-12-27T06:48:39.752Z,3.80
2018-12-27T06:51:29.002Z,3.80
2018-12-27T06:54:18.232Z,3.80
2018-12-27T06:57:07.547Z,3.90
2018-12-27T06:59:56.781Z,3.90
2018-12-27T07:03:05.566Z,3.90
2018-12-27T07:05:54.798Z,3.90
2018-12-27T07:08:44.114Z,3.90
2018-12-27T07:11:33.358Z,3.90
2018-12-27T07:14:22.675Z,3.90
2018-12-27T07:17:11.995Z,3.80
2018-12-27T07:20:01.300Z,3.90
2018-12-27T07:22:43.662Z,3.90
2018-12-27T07:25:32.971Z,3.90
2018-12-27T07:28:22.290Z,3.90
2018-12-27T07:31:11.586Z,3.80
2018-12-27T07:34:01.290Z,3.80
2018-12-27T07:36:50.534Z,3.90
2018-12-27T07:39:39.989Z,3.90
2018-12-27T07:42:29.220Z,3.90
2018-12-27T07:45:18.590Z,3.90
2018-12-27T07:48:07.836Z,3.90
2018-12-27T07:50:57.134Z,3.80
2018-12-27T07:53:46.452Z,3.80
2018-12-27T07:56:35.752Z,3.90
2018-12-27T07:59:25.002Z,3.90
2018-12-27T08:02:14.385Z,3.90
2018-12-27T08:08:11.940Z,3.90
2018-12-27T08:11:20.882Z,3.90
2018-12-27T08:14:10.202Z,3.90
2018-12-27T08:17:00.345Z,3.90
2018-12-27T08:19:50.010Z,3.90
2018-12-27T08:22:32.575Z,3.90
2018-12-27T08:25:22.199Z,4.00
2018-12-27T08:28:11.982Z,4.00
2018-12-27T08:31:01.204Z,4.00
2018-12-27T08:33:50.617Z,4.00
2018-12-27T08:36:39.912Z,4.00
2018-12-27T08:39:29.245Z,3.90
2018-12-27T08:42:18.565Z,4.00
2018-12-27T08:45:08.228Z,4.00
2018-12-27T08:47:57.554Z,4.00
2018-12-27T08:50:46.887Z,4.00
2018-12-27T08:56:31.345Z,4.10
2018-12-27T08:59:20.745Z,4.10
2018-12-27T09:02:09.996Z,4.10
2018-12-27T09:04:59.374Z,4.10
2018-12-27T09:07:48.633Z,4.20
2018-12-27T09:10:38.197Z,4.20
2018-12-27T09:13:27.464Z,4.20
2018-12-27T09:16:16.831Z,4.20
2018-12-27T09:19:06.243Z,4.20
2018-12-27T09:21:48.422Z,4.30
2018-12-27T09:24:37.852Z,4.30
2018-12-27T09:27:27.214Z,4.30
2018-12-27T09:30:16.508Z,4.40
2018-12-27T09:33:05.825Z,4.40
2018-12-27T09:35:55.051Z,4.40
2018-12-27T09:38:44.297Z,4.40
2018-12-27T09:41:33.608Z,4.40
2018-12-27T09:44:22.854Z,4.40
2018-12-27T09:47:12.388Z,4.40
2018-12-27T09:50:01.639Z,4.40
2018-12-27T09:52:50.953Z,4.50
2018-12-27T09:55:40.601Z,4.50
2018-12-27T09:58:29.942Z,4.50
2018-12-27T10:01:19.282Z,4.50
2018-12-27T10:04:08.703Z,4.50
2018-12-27T10:06:58.095Z,4.50
2018-12-27T10:09:47.865Z,4.50
2018-12-27T10:12:56.127Z,4.50
2018-12-27T10:15:45.893Z,4.60
2018-12-27T10:18:54.254Z,4.60
2018-12-27T10:21:36.621Z,4.60
2018-12-27T10:24:26.910Z,4.60
2018-12-27T10:27:16.203Z,4.60
2018-12-27T10:30:05.835Z,4.70
2018-12-27T10:32:55.478Z,4.70
2018-12-27T10:36:03.762Z,4.80
2018-12-27T10:38:54.593Z,4.80
2018-12-27T10:41:43.819Z,4.80
2018-12-27T10:44:33.113Z,4.90
2018-12-27T10:47:41.354Z,4.90
2018-12-27T10:50:30.664Z,5.00
2018-12-27T10:53:20.619Z,5.10
2018-12-27T10:56:29.362Z,5.00
2018-12-27T10:59:19.112Z,5.00
2018-12-27T11:02:09.094Z,5.00
2018-12-27T11:04:58.508Z,5.10
2018-12-27T11:07:47.825Z,5.10
2018-12-27T11:10:37.094Z,5.20
2018-12-27T11:13:26.425Z,5.20
2018-12-27T11:16:15.733Z,5.30
2018-12-27T11:19:05.417Z,5.30
2018-12-27T11:21:47.420Z,5.40
2018-12-27T11:24:36.950Z,5.50
2018-12-27T11:27:26.384Z,5.60
2018-12-27T11:30:15.835Z,5.60
2018-12-27T11:33:05.223Z,5.70
2018-12-27T11:35:55.953Z,5.80
2018-12-27T11:38:46.296Z,5.90
2018-12-27T11:41:35.999Z,5.90
2018-12-27T11:44:25.348Z,6.00
2018-12-27T11:47:14.634Z,6.10
2018-12-27T11:50:04.491Z,6.10
2018-12-27T11:53:12.663Z,6.20
2018-12-27T11:56:02.107Z,6.40
2018-12-27T11:58:51.754Z,7.10
2018-12-27T12:01:41.070Z,8.50
2018-12-27T12:04:30.396Z,9.20
2018-12-27T12:07:19.637Z,10.20
2018-12-27T12:10:09.162Z,10.50
2018-12-27T12:12:58.483Z,11.60
2018-12-27T12:15:47.813Z,11.90
2018-12-27T12:18:37.118Z,12.00
2018-12-27T12:21:26.558Z,11.90
2018-12-27T12:24:15.807Z,12.10
2018-12-27T12:27:24.325Z,12.90
2018-12-27T12:30:13.785Z,12.50
2018-12-27T12:33:03.099Z,12.70
2018-12-27T12:35:52.515Z,12.90
2018-12-27T12:38:41.946Z,12.50
2018-12-27T12:41:31.277Z,12.20
2018-12-27T12:44:20.816Z,12.50
2018-12-27T12:47:10.404Z,12.90
2018-12-27T12:50:00.521Z,13.30
2018-12-27T12:52:49.909Z,13.40
2018-12-27T12:55:39.231Z,13.30
2018-12-27T12:58:29.211Z,13.00
2018-12-27T13:01:18.996Z,13.40
2018-12-27T13:04:27.344Z,13.40
2018-12-27T13:07:35.850Z,12.60
2018-12-27T13:10:25.461Z,12.40
2018-12-27T13:13:33.716Z,13.00
2018-12-27T13:16:23.152Z,12.80
2018-12-27T13:19:31.424Z,12.60
2018-12-27T13:22:13.233Z,12.60
2018-12-27T13:25:02.576Z,12.50
2018-12-27T13:27:51.993Z,12.70
2018-12-27T13:31:00.336Z,12.00
2018-12-27T13:33:49.868Z,11.70
2018-12-27T13:36:58.145Z,11.50
2018-12-27T13:40:06.492Z,11.10
2018-12-27T13:42:55.722Z,10.50
2018-12-27T13:45:44.984Z,10.70
2018-12-27T13:48:34.359Z,10.50
2018-12-27T13:51:42.714Z,10.30
2018-12-27T13:54:50.991Z,10.00
2018-12-27T13:57:40.271Z,9.50
2018-12-27T14:00:29.592Z,9.00
2018-12-27T14:03:19.132Z,8.70
2018-12-27T14:06:32.729Z,8.40
2018-12-27T14:09:39.766Z,8.20
2018-12-27T14:12:28.984Z,8.00
2018-12-27T14:15:18.620Z,7.70
2018-12-27T14:18:26.958Z,7.50
2018-12-27T14:21:37.911Z,7.40
2018-12-27T14:24:27.298Z,7.20
2018-12-27T14:27:35.565Z,7.10
2018-12-27T14:33:40.725Z,7.00
2018-12-27T14:36:32.440Z,6.80
2018-12-27T14:39:24.831Z,6.70
2018-12-27T14:45:29.954Z,6.40
2018-12-27T14:48:38.294Z,6.30
2018-12-27T14:51:46.678Z,6.30
2018-12-27T14:54:54.941Z,6.20
2018-12-27T14:57:44.155Z,6.20
2018-12-27T15:00:33.392Z,6.10
2018-12-27T15:03:44.714Z,6.10
2018-12-27T15:06:53.332Z,6.00
2018-12-27T15:10:02.415Z,5.90
2018-12-27T15:12:51.693Z,5.90
2018-12-27T15:15:41.047Z,5.80
2018-12-27T15:18:30.435Z,5.90
2018-12-27T15:21:20.075Z,5.70
2018-12-27T15:24:02.688Z,5.60
2018-12-27T15:26:51.924Z,5.60
2018-12-27T15:30:00.282Z,5.60
2018-12-27T15:32:49.580Z,5.60
2018-12-27T15:35:38.977Z,5.50
2018-12-27T15:38:47.566Z,5.50
2018-12-27T15:41:55.832Z,5.50
2018-12-27T15:44:45.597Z,5.40
2018-12-27T15:47:54.258Z,5.40
2018-12-27T15:51:02.534Z,5.40
2018-12-27T15:54:10.863Z,5.40
2018-12-27T15:57:00.194Z,5.40
2018-12-27T16:00:08.544Z,5.30
2018-12-27T16:03:16.829Z,5.30
2018-12-27T16:06:25.156Z,5.30
2018-12-27T16:09:14.407Z,5.30
2018-12-27T16:12:22.686Z,5.30
2018-12-27T16:15:11.996Z,5.20
2018-12-27T16:18:20.347Z,5.20
2018-12-27T16:21:10.035Z,5.20
2018-12-27T16:23:52.298Z,5.20
2018-12-27T16:27:00.640Z,5.30
2018-12-27T16:29:49.853Z,5.30
2018-12-27T16:32:58.123Z,5.20
2018-12-27T16:36:06.469Z,5.20
2018-12-27T16:38:56.048Z,5.20
2018-12-27T16:42:04.685Z,5.10
2018-12-27T16:44:53.938Z,5.10
2018-12-27T16:48:02.296Z,5.20
2018-12-27T16:51:10.560Z,5.10
2018-12-27T16:53:59.859Z,5.10
2018-12-27T16:56:49.102Z,5.10
2018-12-27T16:59:38.956Z,5.10
2018-12-27T17:02:28.358Z,5.10
2018-12-27T17:05:17.589Z,5.00
2018-12-27T17:08:06.912Z,5.00
2018-12-27T17:10:56.143Z,5.00
2018-12-27T17:13:45.447Z,5.00
2018-12-27T17:16:34.945Z,5.00
2018-12-27T17:19:24.177Z,5.00
2018-12-27T17:22:06.879Z,5.00
2018-12-27T17:24:56.484Z,4.90
2018-12-27T17:27:45.724Z,4.90
2018-12-27T17:30:35.014Z,4.90
2018-12-27T17:33:24.372Z,4.90
2018-12-27T17:36:32.705Z,4.90
2018-12-27T17:39:40.982Z,4.90
2018-12-27T17:42:49.586Z,4.90
2018-12-27T17:45:38.972Z,4.90
2018-12-27T17:48:28.236Z,4.90
2018-12-27T17:51:17.568Z,4.90
2018-12-27T17:54:06.892Z,4.90
2018-12-27T17:56:59.282Z,4.90
2018-12-27T17:59:48.933Z,4.90
2018-12-27T18:02:38.537Z,4.90
2018-12-27T18:05:47.120Z,4.80
2018-12-27T18:08:36.753Z,4.90
2018-12-27T18:11:45.357Z,4.90
2018-12-27T18:14:54.357Z,5.00
2018-12-27T18:17:43.571Z,4.90
2018-12-27T18:20:51.755Z,4.90
2018-12-27T18:23:34.849Z,4.90
2018-12-27T18:26:24.180Z,4.90
2018-12-27T18:29:36.301Z,4.90
2018-12-27T18:32:25.650Z,4.90
2018-12-27T18:35:15.129Z,4.90
2018-12-27T18:38:23.410Z,4.90
2018-12-27T18:41:12.777Z,4.90
2018-12-27T18:44:02.104Z,4.90
2018-12-27T18:46:51.428Z,4.80
2018-12-27T18:49:40.749Z,4.80
2018-12-27T18:52:30.372Z,4.70
2018-12-27T18:55:20.145Z,4.80
2018-12-27T18:58:10.815Z,4.80
2018-12-27T19:01:00.268Z,4.90
2018-12-27T19:04:08.558Z,4.80
2018-12-27T19:06:57.959Z,4.70
2018-12-27T19:09:28.106Z,4.70
2018-12-27T19:12:52.586Z,4.70
2018-12-27T19:15:26.996Z,4.70
2018-12-27T19:18:26.870Z,4.60
2018-12-27T19:21:09.572Z,4.60
2018-12-27T19:23:39.710Z,4.60
2018-12-27T19:26:09.885Z,4.60
2018-12-27T19:28:40.441Z,4.60
2018-12-27T19:31:10.748Z,4.60
2018-12-27T19:33:41.017Z,4.60
2018-12-27T19:36:11.901Z,4.60
2018-12-27T19:38:42.446Z,4.50
2018-12-27T19:41:17.724Z,4.50
2018-12-27T19:43:48.093Z,4.50
2018-12-27T19:46:18.299Z,4.50
2018-12-27T19:48:48.444Z,4.50
2018-12-27T19:51:18.670Z,4.50
2018-12-27T19:53:51.035Z,4.40
2018-12-27T19:56:21.325Z,4.30
2018-12-27T19:58:51.529Z,4.20
2018-12-27T20:01:21.640Z,4.20
2018-12-27T20:03:51.842Z,4.20
2018-12-27T20:06:22.344Z,4.20
2018-12-27T20:08:52.771Z,4.30
2018-12-27T20:11:24.165Z,4.30
2018-12-27T20:13:54.382Z,4.30
2018-12-27T20:16:24.542Z,4.30
2018-12-27T20:18:54.583Z,4.30
2018-12-27T20:21:24.825Z,4.30
2018-12-27T20:23:54.980Z,4.30
2018-12-27T20:26:25.199Z,4.30
2018-12-27T20:28:55.561Z,4.20
2018-12-27T20:31:26.103Z,4.20
2018-12-27T20:33:56.219Z,4.20
2018-12-27T20:36:26.418Z,4.20
2018-12-27T20:38:56.570Z,4.20
2018-12-27T20:41:26.766Z,4.20
2018-12-27T20:43:56.990Z,4.30
2018-12-27T20:46:27.483Z,4.30
2018-12-27T20:48:57.553Z,4.30
2018-12-27T20:51:27.727Z,4.20
2018-12-27T20:53:58.181Z,4.30
2018-12-27T20:56:28.300Z,4.20
2018-12-27T20:58:58.514Z,4.20
2018-12-27T21:01:28.715Z,4.20
2018-12-27T21:03:58.981Z,4.20
2018-12-27T21:06:29.088Z,4.30
2018-12-27T21:08:59.510Z,4.30
2018-12-27T21:11:30.041Z,4.20
2018-12-27T21:14:00.481Z,4.20
2018-12-27T21:16:30.706Z,4.10
2018-12-27T21:19:00.835Z,4.10
2018-12-27T21:21:31.046Z,4.10
2018-12-27T21:24:01.558Z,4.10
2018-12-27T21:26:31.726Z,4.00
2018-12-27T21:29:01.815Z,4.00
2018-12-27T21:31:31.935Z,3.90
2018-12-27T21:34:02.434Z,3.90
2018-12-27T21:36:32.564Z,3.90
2018-12-27T21:39:03.189Z,4.00
2018-12-27T21:41:33.569Z,4.00
2018-12-27T21:44:03.713Z,4.00
2018-12-27T21:46:33.859Z,4.00
2018-12-27T21:49:03.999Z,4.00
2018-12-27T21:51:34.389Z,3.90
2018-12-27T21:54:04.619Z,3.90
2018-12-27T21:56:34.737Z,3.90
2018-12-27T21:59:05.311Z,3.90
2018-12-27T22:01:35.687Z,3.90
2018-12-27T22:04:06.005Z,3.90
2018-12-27T22:06:37.810Z,3.90
2018-12-27T22:09:09.240Z,3.90
2018-12-27T22:11:39.445Z,3.90
2018-12-27T22:14:09.566Z,3.90
2018-12-27T22:16:40.089Z,3.90
2018-12-27T22:19:10.287Z,3.90
2018-12-27T22:21:40.833Z,3.90
2018-12-27T22:24:24.122Z,3.90
2018-12-27T22:26:54.595Z,3.90
2018-12-27T22:29:25.434Z,4.00
2018-12-27T22:31:55.712Z,3.90
2018-12-27T22:34:27.314Z,3.90
2018-12-27T22:36:57.760Z,3.90
2018-12-27T22:39:28.223Z,3.90
2018-12-27T22:41:58.535Z,3.90
2018-12-27T22:44:28.892Z,3.90
2018-12-27T22:46:59.058Z,3.90
2018-12-27T22:49:29.192Z,3.90
2018-12-27T22:52:01.562Z,3.90
2018-12-27T22:54:31.782Z,3.90
2018-12-27T22:57:05.231Z,3.90
2018-12-27T22:59:35.885Z,3.90
2018-12-27T23:02:06.493Z,3.90
2018-12-27T23:04:37.023Z,3.90
2018-12-27T23:07:07.190Z,3.90
2018-12-27T23:09:37.405Z,3.90
2018-12-27T23:12:07.705Z,3.90
2018-12-27T23:14:37.873Z,3.80
2018-12-27T23:17:08.575Z,3.80
2018-12-27T23:19:38.677Z,3.90
2018-12-27T23:22:08.848Z,3.80
2018-12-27T23:24:39.036Z,3.80
2018-12-27T23:27:09.973Z,3.80
2018-12-27T23:29:40.109Z,3.80
2018-12-27T23:32:10.500Z,3.90
2018-12-27T23:34:40.626Z,3.90
2018-12-27T23:37:10.773Z,3.90
2018-12-27T23:39:40.894Z,3.90
2018-12-27T23:42:10.955Z,3.90
2018-12-27T23:44:41.699Z,3.90
2018-12-27T23:47:12.147Z,4.00
2018-12-27T23:49:43.622Z,3.90
2018-12-27T23:52:13.754Z,3.90
2018-12-27T23:54:43.810Z,3.90
2018-12-27T23:57:14.071Z,3.90
2018-12-27T23:59:44.271Z,3.80
